createdAt,value
2019-04-24T00:03:02.279Z,38.08
2019-04-24T00:08:10.621Z,38.09
2019-04-24T00:11:00.962Z,38.08
2019-04-24T00:13:21.041Z,38.08
2019-04-24T00:15:52.221Z,38.09
2019-04-24T00:18:47.963Z,38.04
2019-04-24T00:23:45.459Z,38.07
2019-04-24T00:26:10.307Z,38.04
2019-04-24T00:28:39.289Z,38.04
2019-04-24T00:31:12.650Z,38.02
2019-04-24T00:33:54.786Z,38.02
2019-04-24T00:39:06.322Z,38.00
2019-04-24T00:43:55.707Z,37.98
2019-04-24T00:46:32.626Z,37.97
2019-04-24T00:48:55.391Z,37.99
2019-04-24T00:56:36.553Z,37.96
2019-04-24T00:59:18.480Z,37.94
2019-04-24T01:07:30.197Z,37.93
2019-04-24T01:10:21.317Z,37.91
2019-04-24T01:15:33.736Z,37.95
2019-04-24T01:21:02.732Z,37.89
2019-04-24T01:23:13.149Z,37.90
2019-04-24T01:25:37.545Z,37.89
2019-04-24T01:33:52.839Z,37.91
2019-04-24T01:36:09.116Z,37.91
2019-04-24T01:38:37.908Z,37.94
2019-04-24T01:41:26.107Z,37.92
2019-04-24T01:43:42.168Z,37.94
2019-04-24T01:46:16.585Z,38.00
2019-04-24T01:48:57.944Z,37.98
2019-04-24T01:51:23.716Z,37.99
2019-04-24T01:58:55.047Z,37.99
2019-04-24T02:04:04.734Z,37.99
2019-04-24T02:09:01.245Z,38.01
2019-04-24T02:16:58.249Z,38.01
2019-04-24T02:19:22.890Z,38.08
2019-04-24T02:21:59.100Z,38.33
2019-04-24T02:24:34.107Z,38.69
2019-04-24T02:26:57.184Z,38.98
2019-04-24T02:29:32.787Z,39.45
2019-04-24T02:32:25.169Z,39.99
2019-04-24T02:37:54.340Z,40.42
2019-04-24T02:43:11.144Z,40.40
2019-04-24T02:50:48.263Z,40.26
2019-04-24T02:55:35.331Z,40.25
2019-04-24T02:58:28.937Z,40.40
2019-04-24T03:03:42.757Z,42.19
2019-04-24T03:09:29.058Z,42.49
2019-04-24T03:13:48.585Z,42.53
2019-04-24T03:17:06.034Z,42.85
2019-04-24T03:24:26.363Z,42.96
2019-04-24T03:29:25.807Z,42.79
2019-04-24T03:34:33.535Z,43.07
2019-04-24T03:37:13.478Z,43.53
2019-04-24T03:39:54.819Z,43.60
2019-04-24T03:42:34.593Z,43.40
2019-04-24T03:45:04.257Z,43.52
2019-04-24T03:49:49.903Z,43.26
2019-04-24T03:52:21.930Z,43.17
2019-04-24T03:54:59.135Z,43.11
2019-04-24T04:08:19.027Z,42.72
2019-04-24T04:13:29.866Z,42.58
2019-04-24T04:15:33.266Z,42.52
2019-04-24T04:23:47.015Z,42.33
2019-04-24T04:26:29.683Z,42.27
2019-04-24T04:42:26.227Z,41.88
2019-04-24T04:45:05.229Z,41.87
2019-04-24T04:47:27.234Z,41.81
2019-04-24T05:01:06.854Z,41.56
2019-04-24T05:03:39.686Z,41.53
2019-04-24T05:13:42.019Z,41.33
2019-04-24T05:16:16.617Z,41.30
2019-04-24T05:18:38.695Z,41.25
2019-04-24T05:21:10.959Z,41.24
2019-04-24T05:29:48.495Z,41.15
2019-04-24T05:32:45.818Z,41.08
2019-04-24T05:37:48.330Z,41.02
2019-04-24T05:42:57.246Z,40.98
2019-04-24T05:48:35.753Z,40.92
2019-04-24T05:54:23.057Z,40.86
2019-04-24T05:57:07.383Z,40.82
2019-04-24T05:59:41.198Z,40.86
2019-04-24T06:02:40.976Z,40.77
2019-04-24T06:07:37.299Z,40.75
2019-04-24T06:10:12.437Z,40.71
2019-04-24T06:13:02.193Z,40.69
2019-04-24T06:16:21.443Z,40.68
2019-04-24T06:18:55.343Z,40.61
2019-04-24T06:21:15.842Z,40.57
2019-04-24T06:24:23.442Z,40.52
2019-04-24T06:39:39.710Z,40.35
2019-04-24T06:42:22.320Z,40.29
2019-04-24T06:45:05.931Z,40.26
2019-04-24T06:47:49.641Z,40.23
2019-04-24T06:49:56.290Z,40.17
2019-04-24T06:57:50.205Z,40.06
2019-04-24T07:00:09.262Z,40.03
2019-04-24T07:02:40.591Z,40.03
2019-04-24T07:05:49.780Z,40.02
2019-04-24T07:08:31.491Z,40.03
2019-04-24T07:11:28.154Z,40.01
2019-04-24T07:17:02.848Z,39.99
2019-04-24T07:19:25.276Z,39.99
2019-04-24T07:21:58.769Z,39.96
2019-04-24T07:27:03.488Z,39.94
2019-04-24T07:29:42.007Z,39.93
2019-04-24T07:38:00.858Z,39.90
2019-04-24T07:40:32.169Z,39.87
2019-04-24T07:42:54.241Z,39.84
2019-04-24T07:45:28.927Z,39.82
2019-04-24T07:47:44.707Z,39.77
2019-04-24T07:51:07.169Z,39.77
2019-04-24T08:01:24.936Z,39.58
2019-04-24T08:06:42.867Z,39.45
2019-04-24T08:09:27.386Z,39.41
2019-04-24T08:11:55.560Z,39.35
2019-04-24T08:14:42.697Z,39.28
2019-04-24T08:16:50.628Z,39.21
2019-04-24T08:19:54.607Z,39.15
2019-04-24T08:22:07.216Z,39.07
2019-04-24T08:24:50.928Z,39.04
2019-04-24T08:27:15.635Z,38.99
2019-04-24T08:29:51.099Z,38.95
2019-04-24T08:32:17.604Z,38.91
2019-04-24T08:34:47.857Z,38.85
2019-04-24T08:37:29.874Z,38.77
2019-04-24T08:43:12.205Z,38.68
2019-04-24T08:45:56.796Z,38.66
2019-04-24T08:51:45.636Z,38.56
2019-04-24T08:56:35.902Z,38.46
2019-04-24T08:59:08.406Z,38.43
2019-04-24T09:01:58.917Z,38.40
2019-04-24T09:04:49.877Z,38.33
2019-04-24T09:06:56.610Z,38.29
2019-04-24T09:10:16.014Z,38.22
2019-04-24T09:13:10.065Z,38.22
2019-04-24T09:15:23.280Z,38.18
2019-04-24T09:17:50.302Z,38.16
2019-04-24T09:20:26.991Z,38.13
2019-04-24T09:22:54.985Z,38.16
2019-04-24T09:26:19.443Z,38.12
2019-04-24T09:28:40.727Z,38.10
2019-04-24T09:31:06.818Z,38.07
2019-04-24T09:36:31.539Z,38.11
2019-04-24T09:39:06.066Z,38.10
2019-04-24T09:44:02.812Z,38.08
2019-04-24T09:54:28.206Z,38.09
2019-04-24T09:57:24.675Z,38.10
2019-04-24T10:02:30.918Z,38.11
2019-04-24T10:05:12.774Z,38.12
2019-04-24T10:07:40.749Z,38.13
2019-04-24T10:10:17.605Z,38.13
2019-04-24T10:12:58.343Z,38.15
2019-04-24T10:15:31.913Z,38.14
2019-04-24T10:18:04.082Z,38.15
2019-04-24T10:20:41.210Z,38.15
2019-04-24T10:23:48.023Z,38.16
2019-04-24T10:26:13.581Z,38.16
2019-04-24T10:34:43.647Z,38.20
2019-04-24T10:38:14.982Z,38.19
2019-04-24T10:40:25.817Z,38.20
2019-04-24T10:45:39.108Z,38.20
2019-04-24T10:48:40.268Z,38.20
2019-04-24T10:50:58.600Z,38.20
2019-04-24T10:53:36.338Z,38.20
2019-04-24T11:07:09.295Z,38.16
2019-04-24T11:09:53.112Z,38.17
2019-04-24T11:12:10.930Z,38.13
2019-04-24T11:15:09.388Z,38.13
2019-04-24T11:18:07.354Z,38.13
2019-04-24T11:20:51.817Z,38.11
2019-04-24T11:23:18.708Z,38.09
2019-04-24T11:26:13.470Z,38.10
2019-04-24T11:28:49.593Z,38.06
2019-04-24T11:34:26.211Z,38.10
2019-04-24T11:37:01.033Z,38.06
2019-04-24T11:40:08.814Z,38.05
2019-04-24T11:42:05.164Z,38.08
2019-04-24T11:44:49.478Z,38.06
2019-04-24T11:47:38.502Z,38.00
2019-04-24T11:50:35.009Z,38.01
2019-04-24T11:55:40.075Z,37.97
2019-04-24T11:58:29.415Z,37.97
2019-04-24T12:00:59.762Z,37.95
2019-04-24T12:06:46.807Z,37.94
2019-04-24T12:09:03.062Z,37.93
2019-04-24T12:11:53.747Z,37.90
2019-04-24T12:14:23.791Z,37.89
2019-04-24T12:17:05.020Z,37.83
2019-04-24T12:19:56.878Z,37.83
2019-04-24T12:22:21.226Z,37.83
2019-04-24T12:27:28.070Z,37.75
2019-04-24T12:35:22.087Z,37.71
2019-04-24T12:37:57.961Z,37.66
2019-04-24T12:40:51.707Z,37.66
2019-04-24T12:45:58.178Z,37.62
2019-04-24T12:48:37.571Z,37.59
2019-04-24T12:50:55.980Z,37.58
2019-04-24T12:53:51.501Z,37.57
2019-04-24T12:56:15.221Z,37.54
2019-04-24T13:01:59.443Z,37.48
2019-04-24T13:04:38.622Z,37.49
2019-04-24T13:07:06.936Z,37.43
2019-04-24T13:09:50.097Z,37.42
2019-04-24T13:12:41.855Z,37.42
2019-04-24T13:15:14.024Z,37.43
2019-04-24T13:18:10.644Z,37.40
2019-04-24T13:19:50.504Z,37.37
2019-04-24T13:22:32.662Z,37.32
2019-04-24T13:25:22.876Z,37.32
2019-04-24T13:28:23.797Z,37.26
2019-04-24T13:33:39.084Z,37.22
2019-04-24T13:36:32.522Z,37.22
2019-04-24T13:38:45.440Z,37.21
2019-04-24T13:41:30.603Z,37.18
2019-04-24T13:46:06.092Z,37.13
2019-04-24T13:48:57.756Z,37.09
2019-04-24T13:51:13.973Z,37.07
2019-04-24T13:53:56.773Z,37.05
2019-04-24T13:56:20.290Z,37.03
2019-04-24T13:59:00.205Z,37.00
2019-04-24T14:01:37.087Z,36.94
2019-04-24T14:06:39.625Z,36.84
2019-04-24T14:12:28.941Z,36.76
2019-04-24T14:14:07.502Z,36.73
2019-04-24T14:16:48.558Z,36.69
2019-04-24T14:22:00.747Z,36.59
2019-04-24T14:24:28.528Z,36.59
2019-04-24T14:27:06.875Z,36.52
2019-04-24T14:29:37.790Z,36.49
2019-04-24T14:32:05.077Z,36.48
2019-04-24T14:37:09.705Z,36.43
2019-04-24T14:39:42.167Z,36.36
2019-04-24T14:43:24.517Z,36.37
2019-04-24T14:52:34.806Z,36.37
2019-04-24T14:55:22.383Z,36.39
2019-04-24T14:57:42.335Z,36.35
2019-04-24T15:00:18.377Z,36.30
2019-04-24T15:05:12.881Z,36.28
2019-04-24T15:07:49.654Z,36.22
2019-04-24T15:10:14.570Z,36.21
2019-04-24T15:15:19.426Z,36.15
2019-04-24T15:22:58.249Z,36.24
2019-04-24T15:25:43.225Z,36.24
2019-04-24T15:28:10.480Z,36.31
2019-04-24T15:30:32.258Z,36.36
2019-04-24T15:33:03.530Z,36.42
2019-04-24T15:38:16.898Z,36.56
2019-04-24T15:40:58.185Z,36.60
2019-04-24T15:43:18.536Z,36.64
2019-04-24T15:45:45.338Z,36.70
2019-04-24T15:48:30.438Z,36.77
2019-04-24T15:50:49.075Z,36.86
2019-04-24T15:52:48.378Z,36.91
2019-04-24T15:55:27.792Z,37.00
2019-04-24T15:58:02.054Z,37.10
2019-04-24T16:01:09.138Z,37.16
2019-04-24T16:05:42.643Z,37.35
2019-04-24T16:08:13.914Z,37.43
2019-04-24T16:10:43.679Z,37.52
2019-04-24T16:13:19.684Z,37.59
2019-04-24T16:16:13.427Z,37.66
2019-04-24T16:29:06.708Z,37.89
2019-04-24T16:31:35.916Z,37.95
2019-04-24T16:34:07.730Z,37.97
2019-04-24T16:36:35.827Z,38.02
2019-04-24T16:44:11.015Z,38.13
2019-04-24T16:46:49.936Z,38.13
2019-04-24T16:49:22.984Z,38.15
2019-04-24T16:56:47.942Z,38.23
2019-04-24T16:59:16.196Z,38.23
2019-04-24T17:04:32.361Z,38.22
2019-04-24T17:12:01.916Z,38.21
2019-04-24T17:14:35.234Z,38.23
2019-04-24T17:22:43.378Z,38.16
2019-04-24T17:27:45.750Z,38.14
2019-04-24T17:32:45.416Z,38.12
2019-04-24T17:37:18.713Z,38.07
2019-04-24T17:39:57.065Z,38.05
2019-04-24T17:42:44.146Z,38.05
2019-04-24T17:45:30.446Z,38.04
2019-04-24T17:48:07.127Z,38.03
2019-04-24T17:50:32.096Z,38.02
2019-04-24T17:55:51.609Z,38.03
2019-04-24T17:57:46.289Z,38.01
2019-04-24T18:00:10.609Z,37.96
2019-04-24T18:02:42.276Z,37.97
2019-04-24T18:05:13.044Z,37.98
2019-04-24T18:07:42.878Z,37.99
2019-04-24T18:10:13.278Z,38.04
2019-04-24T18:12:42.966Z,38.04
2019-04-24T18:15:13.110Z,38.08
2019-04-24T18:17:43.116Z,38.12
2019-04-24T18:20:13.550Z,38.13
2019-04-24T18:22:43.253Z,38.14
2019-04-24T18:25:28.588Z,38.17
2019-04-24T18:27:58.236Z,38.20
2019-04-24T18:30:32.167Z,38.24
2019-04-24T18:33:01.288Z,38.29
2019-04-24T18:35:32.211Z,38.30
2019-04-24T18:38:06.657Z,38.36
2019-04-24T18:40:33.305Z,38.38
2019-04-24T18:43:04.641Z,38.42
2019-04-24T18:45:34.437Z,38.46
2019-04-24T18:48:04.943Z,38.47
2019-04-24T18:50:34.707Z,38.48
2019-04-24T18:53:04.757Z,38.53
2019-04-24T18:55:35.193Z,38.56
2019-04-24T18:58:05.948Z,38.59
2019-04-24T19:00:35.738Z,38.60
2019-04-24T19:03:06.503Z,38.63
2019-04-24T19:05:36.186Z,38.67
2019-04-24T19:08:07.109Z,38.70
2019-04-24T19:10:36.902Z,38.72
2019-04-24T19:13:07.453Z,38.73
2019-04-24T19:15:37.112Z,38.75
2019-04-24T19:18:07.779Z,38.76
2019-04-24T19:20:37.948Z,38.79
2019-04-24T19:23:08.924Z,38.83
2019-04-24T19:25:39.016Z,38.85
2019-04-24T19:28:12.543Z,38.86
2019-04-24T19:30:41.276Z,38.89
2019-04-24T19:33:11.693Z,38.90
2019-04-24T19:35:41.842Z,38.92
2019-04-24T19:38:12.912Z,38.95
2019-04-24T19:40:43.191Z,38.95
2019-04-24T19:43:13.988Z,38.96
2019-04-24T19:45:44.137Z,38.97
2019-04-24T19:48:14.327Z,39.00
2019-04-24T19:50:44.764Z,39.02
2019-04-24T19:53:20.839Z,39.03
2019-04-24T19:55:45.872Z,39.02
2019-04-24T19:58:15.897Z,39.05
2019-04-24T20:00:45.745Z,39.07
2019-04-24T20:03:16.273Z,39.08
2019-04-24T20:05:46.010Z,39.09
2019-04-24T20:08:16.282Z,39.12
2019-04-24T20:10:59.153Z,39.12
2019-04-24T20:13:28.879Z,39.15
2019-04-24T20:15:58.593Z,39.17
2019-04-24T20:18:29.576Z,39.17
2019-04-24T20:20:59.264Z,39.21
2019-04-24T20:23:34.386Z,39.22
2019-04-24T20:26:01.302Z,39.23
2019-04-24T20:28:31.565Z,39.24
2019-04-24T20:31:01.757Z,39.25
2019-04-24T20:33:32.606Z,39.27
2019-04-24T20:36:02.859Z,39.29
2019-04-24T20:38:32.934Z,39.30
2019-04-24T20:41:03.293Z,39.32
2019-04-24T20:43:32.900Z,39.32
2019-04-24T20:46:02.535Z,39.33
2019-04-24T20:48:32.417Z,39.33
2019-04-24T20:51:02.352Z,39.36
2019-04-24T20:53:39.992Z,39.36
2019-04-24T20:56:03.454Z,39.37
2019-04-24T20:58:34.883Z,39.38
2019-04-24T21:01:06.573Z,39.39
2019-04-24T21:03:36.223Z,39.39
2019-04-24T21:09:38.746Z,39.43
2019-04-24T21:12:08.479Z,39.42
2019-04-24T21:14:40.900Z,39.44
2019-04-24T21:17:11.074Z,39.44
2019-04-24T21:19:42.240Z,39.44
2019-04-24T21:22:12.044Z,39.44
2019-04-24T21:24:41.780Z,39.45
2019-04-24T21:27:11.863Z,39.43
2019-04-24T21:29:41.630Z,39.46
2019-04-24T21:32:12.047Z,39.45
2019-04-24T21:34:41.647Z,39.46
2019-04-24T21:37:11.372Z,39.46
2019-04-24T21:39:42.123Z,39.49
2019-04-24T21:42:11.925Z,39.49
2019-04-24T21:44:41.976Z,39.50
2019-04-24T21:47:12.161Z,39.50
2019-04-24T21:49:41.858Z,39.49
2019-04-24T21:52:11.568Z,39.52
2019-04-24T21:54:41.513Z,39.51
2019-04-24T21:57:12.122Z,39.52
2019-04-24T21:59:42.200Z,39.52
2019-04-24T22:02:31.562Z,39.52
2019-04-24T22:05:11.489Z,39.53
2019-04-24T22:07:44.053Z,39.52
2019-04-24T22:10:14.283Z,39.53
2019-04-24T22:12:43.964Z,39.53
2019-04-24T22:15:13.776Z,39.53
2019-04-24T22:17:43.752Z,39.54
2019-04-24T22:20:25.703Z,39.52
2019-04-24T22:23:03.325Z,39.53
2019-04-24T22:25:47.331Z,39.54
2019-04-24T22:28:17.359Z,39.53
2019-04-24T22:31:04.738Z,39.52
2019-04-24T22:33:38.376Z,39.52
2019-04-24T22:36:08.397Z,39.51
2019-04-24T22:38:41.979Z,39.52
2019-04-24T22:41:12.084Z,39.52
2019-04-24T22:43:42.186Z,39.52
2019-04-24T22:46:12.195Z,39.51
2019-04-24T22:48:41.938Z,39.50
2019-04-24T22:51:12.201Z,39.50
2019-04-24T22:53:42.112Z,39.50
2019-04-24T22:56:11.834Z,39.48
2019-04-24T22:58:41.579Z,39.46
2019-04-24T23:01:11.659Z,39.45
2019-04-24T23:03:41.394Z,39.45
2019-04-24T23:06:11.192Z,39.43
2019-04-24T23:08:42.462Z,39.43
2019-04-24T23:11:12.611Z,39.42
2019-04-24T23:13:43.324Z,39.42
2019-04-24T23:16:13.607Z,39.41
2019-04-24T23:18:43.407Z,39.40
2019-04-24T23:21:30.239Z,39.40
2019-04-24T23:24:04.092Z,39.37
2019-04-24T23:26:48.470Z,39.37
2019-04-24T23:29:22.098Z,39.34
2019-04-24T23:32:02.664Z,39.34
2019-04-24T23:34:33.682Z,39.33
2019-04-24T23:37:03.708Z,39.34
2019-04-24T23:39:34.528Z,39.30
2019-04-24T23:42:04.657Z,39.27
2019-04-24T23:44:34.782Z,39.28
2019-04-24T23:47:04.815Z,39.26
2019-04-24T23:49:35.548Z,39.26
2019-04-24T23:52:05.280Z,39.24
2019-04-24T23:54:35.224Z,39.22
2019-04-24T23:57:06.093Z,39.20
2019-04-24T23:59:36.685Z,39.19
